createdAt,value
2022-10-22T00:02:43.858Z,11.13
2022-10-22T00:07:45.805Z,12.70
2022-10-22T00:12:47.703Z,7.47
2022-10-22T00:17:49.905Z,10.38
2022-10-22T00:27:59.227Z,8.90
2022-10-22T00:33:01.120Z,9.70
2022-10-22T00:38:03.015Z,9.90
2022-10-22T00:43:05.071Z,9.45
2022-10-22T00:48:17.563Z,13.25
2022-10-22T00:53:33.211Z,8.65
2022-10-22T00:58:40.442Z,14.90
2022-10-22T01:05:14.458Z,9.13
2022-10-22T01:10:17.262Z,6.22
2022-10-22T01:15:22.000Z,7.90
2022-10-22T01:20:52.007Z,8.13
2022-10-22T01:26:00.578Z,6.68
2022-10-22T01:31:09.536Z,8.68
2022-10-22T01:36:14.811Z,6.70
2022-10-22T01:41:17.210Z,7.18
2022-10-22T01:46:21.484Z,7.57
2022-10-22T01:51:26.323Z,6.97
2022-10-22T01:57:00.225Z,4.85
2022-10-22T02:02:29.536Z,4.40
2022-10-22T02:07:37.557Z,5.72
2022-10-22T02:12:42.694Z,8.95
2022-10-22T02:17:47.348Z,6.25
2022-10-22T02:22:50.190Z,5.93
2022-10-22T02:28:02.621Z,4.70
2022-10-22T02:33:21.708Z,5.78
2022-10-22T02:38:26.521Z,5.28
2022-10-22T02:43:29.704Z,5.60
2022-10-22T02:48:31.629Z,4.88
2022-10-22T02:53:33.663Z,6.78
2022-10-22T02:58:35.630Z,5.35
2022-10-22T03:07:25.097Z,7.03
2022-10-22T03:12:27.034Z,6.93
2022-10-22T03:17:28.974Z,7.47
2022-10-22T03:22:35.054Z,5.47
2022-10-22T03:27:39.242Z,6.85
2022-10-22T03:32:41.423Z,5.65
2022-10-22T03:37:43.606Z,8.98
2022-10-22T03:42:45.882Z,7.25
2022-10-22T03:47:47.775Z,7.75
2022-10-22T03:58:21.388Z,5.70
2022-10-22T04:03:23.297Z,10.27
2022-10-22T04:08:25.303Z,7.57
2022-10-22T04:13:27.325Z,6.57
2022-10-22T04:18:29.466Z,7.03
2022-10-22T04:23:31.362Z,6.25
2022-10-22T04:28:36.467Z,8.77
2022-10-22T04:33:38.880Z,8.57
2022-10-22T04:38:42.651Z,5.57
2022-10-22T04:43:45.138Z,7.30
2022-10-22T04:48:47.881Z,6.88
2022-10-22T04:53:53.164Z,6.55
2022-10-22T04:59:00.554Z,7.40
2022-10-22T05:04:04.166Z,8.05
2022-10-22T05:09:13.700Z,6.30
2022-10-22T05:14:24.256Z,8.88
2022-10-22T05:19:28.438Z,5.93
2022-10-22T05:24:33.465Z,9.52
2022-10-22T05:29:35.670Z,5.40
2022-10-22T05:34:37.888Z,3.33
2022-10-22T05:39:41.758Z,4.00
2022-10-22T05:44:43.638Z,4.68
2022-10-22T05:49:45.607Z,7.90
2022-10-22T05:54:47.547Z,9.05
2022-10-22T05:59:50.119Z,6.60
2022-10-22T06:04:52.503Z,5.78
2022-10-22T06:09:54.670Z,6.03
2022-10-22T06:14:56.556Z,7.25
2022-10-22T06:20:02.185Z,12.63
2022-10-22T06:25:06.316Z,6.57
2022-10-22T06:30:09.174Z,6.93
2022-10-22T06:35:13.729Z,5.95
2022-10-22T06:40:16.506Z,14.63
2022-10-22T06:45:18.732Z,17.88
2022-10-22T06:50:20.736Z,17.50
2022-10-22T06:55:22.719Z,16.63
2022-10-22T07:00:24.812Z,15.85
2022-10-22T07:05:26.917Z,10.27
2022-10-22T07:10:30.670Z,13.23
2022-10-22T07:15:32.812Z,14.38
2022-10-22T07:20:34.828Z,12.95
2022-10-22T07:25:37.099Z,12.10
2022-10-22T07:30:39.864Z,12.02
2022-10-22T07:35:42.551Z,12.02
2022-10-22T07:40:44.609Z,16.98
2022-10-22T07:45:47.615Z,18.38
2022-10-22T07:50:51.829Z,14.57
2022-10-22T07:55:54.682Z,21.80
2022-10-22T08:01:03.068Z,14.45
2022-10-22T08:06:05.459Z,14.73
2022-10-22T08:11:10.417Z,18.70
2022-10-22T08:16:12.617Z,15.38
2022-10-22T08:21:17.993Z,22.55
2022-10-22T08:26:19.974Z,15.27
2022-10-22T08:31:30.983Z,11.77
2022-10-22T08:36:32.874Z,13.00
2022-10-22T08:41:51.257Z,10.95
2022-10-22T08:47:28.998Z,13.77
2022-10-22T08:52:44.605Z,13.15
2022-10-22T08:57:56.497Z,10.85
2022-10-22T09:03:16.980Z,22.70
2022-10-22T09:08:20.804Z,18.38
2022-10-22T09:13:24.480Z,28.83
2022-10-22T09:18:47.632Z,23.50
2022-10-22T09:24:14.736Z,17.13
2022-10-22T09:29:24.587Z,15.80
2022-10-22T09:34:28.380Z,14.23
2022-10-22T09:39:39.753Z,13.88
2022-10-22T09:44:49.251Z,14.55
2022-10-22T09:50:07.200Z,9.35
2022-10-22T09:55:18.508Z,7.85
2022-10-22T10:00:25.560Z,7.72
2022-10-22T10:05:31.789Z,10.38
2022-10-22T10:10:50.311Z,10.40
2022-10-22T10:16:09.141Z,11.05
2022-10-22T10:21:19.836Z,14.23
2022-10-22T10:26:32.022Z,10.37
2022-10-22T10:31:34.053Z,9.88
2022-10-22T10:37:04.743Z,7.50
2022-10-22T10:42:28.525Z,8.57
2022-10-22T10:48:01.172Z,4.93
2022-10-22T10:53:26.765Z,3.35
2022-10-22T10:58:48.873Z,5.88
2022-10-22T11:04:05.359Z,9.55
2022-10-22T11:09:23.386Z,5.63
2022-10-22T11:14:54.029Z,5.18
2022-10-22T11:20:08.156Z,3.88
2022-10-22T11:25:19.661Z,4.03
2022-10-22T11:30:30.059Z,4.47
2022-10-22T11:35:35.822Z,4.28
2022-10-22T11:41:07.341Z,5.50
2022-10-22T11:46:26.546Z,5.30
2022-10-22T11:51:32.504Z,3.97
2022-10-22T11:56:39.440Z,6.88
2022-10-22T12:01:43.320Z,3.42
2022-10-22T12:07:01.058Z,3.03
2022-10-22T12:12:12.777Z,4.88
2022-10-22T12:17:16.306Z,4.72
2022-10-22T12:22:35.763Z,8.27
2022-10-22T12:27:51.390Z,5.55
2022-10-22T12:33:08.467Z,2.58
2022-10-22T12:38:15.832Z,2.45
2022-10-22T12:43:20.474Z,1.90
2022-10-22T12:48:24.568Z,2.15
2022-10-22T12:53:35.158Z,2.13
2022-10-22T12:58:59.267Z,1.20
2022-10-22T13:04:28.636Z,3.00
2022-10-22T13:09:41.019Z,4.60
2022-10-22T13:14:45.687Z,2.72
2022-10-22T13:19:54.102Z,3.75
2022-10-22T13:30:09.778Z,2.70
2022-10-22T13:35:18.939Z,2.45
2022-10-22T13:40:21.315Z,1.73
2022-10-22T13:45:23.603Z,2.55
2022-10-22T13:50:25.725Z,4.03
2022-10-22T13:55:30.319Z,3.50
2022-10-22T14:00:32.672Z,3.10
2022-10-22T14:05:41.418Z,2.33
2022-10-22T14:10:43.426Z,2.20
2022-10-22T14:15:48.340Z,2.28
2022-10-22T14:20:53.077Z,1.60
2022-10-22T14:25:56.093Z,1.90
2022-10-22T14:31:05.606Z,2.10
2022-10-22T14:36:09.372Z,1.15
2022-10-22T14:41:20.964Z,1.40
2022-10-22T14:46:23.102Z,1.13
2022-10-22T14:51:25.156Z,2.03
2022-10-22T14:56:27.181Z,2.20
2022-10-22T15:01:29.313Z,2.42
2022-10-22T15:06:32.681Z,3.17
2022-10-22T15:11:35.556Z,7.75
2022-10-22T15:16:37.540Z,3.97
2022-10-22T15:21:39.687Z,2.28
2022-10-22T15:26:56.214Z,3.20
2022-10-22T15:31:59.566Z,2.08
2022-10-22T15:37:07.521Z,2.55
2022-10-22T15:42:10.107Z,2.08
2022-10-22T15:47:12.254Z,1.75
2022-10-22T15:52:14.286Z,6.72
2022-10-22T15:57:16.358Z,5.63
2022-10-22T16:02:18.280Z,2.05
2022-10-22T16:07:23.906Z,1.73
2022-10-22T16:12:33.407Z,1.40
2022-10-22T16:17:35.478Z,2.47
2022-10-22T16:22:37.748Z,1.75
2022-10-22T16:27:39.934Z,3.08
2022-10-22T16:32:42.819Z,2.30
2022-10-22T16:37:45.033Z,1.15
2022-10-22T16:42:47.521Z,1.83
2022-10-22T16:47:49.707Z,1.02
2022-10-22T16:52:51.704Z,1.10
2022-10-22T16:57:53.730Z,2.17
2022-10-22T17:02:56.344Z,3.75
2022-10-22T17:07:58.288Z,1.85
2022-10-22T17:13:00.231Z,2.63
2022-10-22T17:18:05.671Z,1.80
2022-10-22T17:23:10.779Z,2.75
2022-10-22T17:28:12.767Z,4.43
2022-10-22T17:33:14.757Z,3.85
2022-10-22T17:38:16.799Z,4.68
2022-10-22T17:43:24.790Z,3.90
2022-10-22T17:48:52.631Z,1.48
2022-10-22T17:53:56.583Z,2.42
2022-10-22T17:59:01.626Z,2.17
2022-10-22T18:04:06.588Z,0.80
2022-10-22T18:09:13.269Z,2.08
2022-10-22T18:14:22.674Z,4.85
2022-10-22T18:19:31.589Z,1.60
2022-10-22T18:24:37.268Z,2.88
2022-10-22T18:29:39.172Z,4.10
2022-10-22T18:34:41.418Z,2.13
2022-10-22T18:39:43.571Z,2.60
2022-10-22T18:44:45.488Z,2.42
2022-10-22T18:49:48.788Z,9.20
2022-10-22T18:54:54.531Z,2.65
2022-10-22T18:59:59.273Z,6.90
2022-10-22T19:05:01.618Z,4.93
2022-10-22T19:10:04.297Z,3.30
2022-10-22T19:15:07.539Z,2.75
2022-10-22T19:20:10.152Z,1.95
2022-10-22T19:25:12.266Z,1.65
2022-10-22T19:30:14.644Z,3.10
2022-10-22T19:35:16.936Z,2.80
2022-10-22T19:40:25.810Z,3.97
2022-10-22T19:45:27.888Z,3.25
2022-10-22T19:50:29.885Z,3.33
2022-10-22T19:55:32.075Z,3.22
2022-10-22T20:00:36.021Z,2.95
2022-10-22T20:05:39.014Z,23.20
2022-10-22T20:10:49.073Z,11.25
2022-10-22T20:15:53.583Z,8.23
2022-10-22T20:20:55.567Z,9.52
2022-10-22T20:25:57.582Z,7.18
2022-10-22T20:30:59.757Z,9.02
2022-10-22T20:36:09.324Z,7.80
2022-10-22T20:41:14.876Z,7.93
2022-10-22T20:46:19.575Z,9.52
2022-10-22T20:51:21.561Z,13.52
2022-10-22T20:56:24.245Z,10.68
2022-10-22T21:01:28.545Z,10.75
2022-10-22T21:06:30.626Z,15.52
2022-10-22T21:11:33.270Z,16.42
2022-10-22T21:16:35.231Z,15.82
2022-10-22T21:21:37.609Z,13.40
2022-10-22T21:26:41.967Z,10.05
2022-10-22T21:31:43.967Z,10.27
2022-10-22T21:36:53.015Z,6.97
2022-10-22T21:41:55.142Z,7.07
2022-10-22T21:46:57.512Z,8.50
2022-10-22T21:52:00.339Z,4.90
2022-10-22T21:57:02.183Z,5.00
2022-10-22T22:02:05.829Z,6.50
2022-10-22T22:07:08.106Z,5.22
2022-10-22T22:12:13.020Z,4.28
2022-10-22T22:17:16.599Z,7.50
2022-10-22T22:22:18.719Z,5.45
2022-10-22T22:32:27.486Z,5.43
2022-10-22T22:37:29.553Z,7.35
2022-10-22T22:42:31.516Z,5.55
2022-10-22T22:47:33.787Z,5.18
2022-10-22T22:52:39.233Z,6.00
2022-10-22T22:57:41.262Z,6.80
2022-10-22T23:02:43.702Z,5.18
2022-10-22T23:07:45.850Z,6.63
2022-10-22T23:12:47.711Z,6.68
2022-10-22T23:17:50.245Z,7.82
2022-10-22T23:22:52.248Z,4.72
2022-10-22T23:27:54.158Z,6.30
2022-10-22T23:32:56.189Z,5.13
2022-10-22T23:37:58.070Z,5.35
2022-10-22T23:43:01.157Z,5.25
2022-10-22T23:48:03.342Z,6.55
2022-10-22T23:53:05.473Z,8.23
2022-10-22T23:58:07.707Z,5.68
